Data for 05/12/2008

Time Sea-Level Adjusted Pressure Absolute Pressure Temperature Relative Humidity Dew Point   
(mb) (inHg) (mb) (inHg) (C) (F) (%) (C) (F)
00:05 1011 29.85 840 24.81 3.3 37.9 94 2.4 36.4
00:10 1011 29.85 840 24.81 3.4 38.1 94 2.5 36.6
00:15 1011 29.85 840 24.81 3.4 38.1 94 2.5 36.6
00:20 1011 29.85 840 24.81 3.5 38.3 94 2.6 36.7
00:25 1011 29.85 840 24.81 3.5 38.3 94 2.5 36.6
00:30 1011 29.85 840 24.81 3.6 38.4 92 2.4 36.4
00:35 1011 29.85 840 24.81 3.4 38.1 92 2.2 36
00:40 1011 29.85 840 24.81 3.2 37.7 92 2 35.6
00:45 1011 29.85 840 24.81 3 37.4 93 1.9 35.4
00:50 1011 29.85 840 24.81 2.7 36.9 94 1.8 35.2
00:55 1011 29.85 840 24.81 2.4 36.3 95 1.7 35
01:00 1011 29.85 840 24.81 2.2 35.9 96 1.5 34.8
01:05 1011 29.85 840 24.81 2.1 35.7 96 1.5 34.7
01:10 1011 29.85 840 24.81 2 35.6 97 1.5 34.8
01:15 1011 29.85 840 24.81 2 35.6 97 1.5 34.7
01:20 1011 29.85 840 24.81 1.7 35 97 1.3 34.4
01:25 1011 29.85 840 24.81 1.6 34.9 98 1.3 34.4
01:30 1011 29.85 840 24.81 1.6 34.9 98 1.4 34.5
01:35 1011 29.85 840 24.81 1.8 35.2 98 1.6 34.8
01:40 1011 29.85 840 24.81 1.9 35.4 98 1.6 34.9
01:45 1011 29.85 840 24.81 1.8 35.3 98 1.6 34.9
01:50 1011 29.85 840 24.81 1.9 35.4 98 1.7 35
01:55 1011 29.85 840 24.81 1.9 35.5 98 1.7 35.1
02:00 1011 29.85 840 24.81 2.1 35.8 98 1.8 35.2
02:05 1011 29.85 840 24.81 2.2 36 97 1.8 35.2
02:10 1011 29.85 840 24.81 2.3 36.1 96 1.8 35.2
02:15 1011 29.85 840 24.81 2.3 36.1 96 1.7 35
02:20 1011 29.85 840 24.81 2.4 36.3 95 1.6 34.9
02:25 1010 29.83 840 24.81 2.4 36.3 94 1.6 34.8
02:30 1010 29.83 840 24.81 2.3 36.2 93 1.4 34.5
02:35 1010 29.83 840 24.81 2.4 36.3 92 1.2 34.2
02:40 1010 29.83 840 24.81 2.4 36.3 92 1.2 34.2
02:45 1010 29.83 840 24.81 2.3 36.2 91 1 33.8
02:50 1010 29.83 840 24.81 2.4 36.3 89 0.8 33.5
02:55 1010 29.83 840 24.81 2.5 36.5 88 0.6 33.2
03:00 1011 29.85 840 24.81 2.6 36.7 86 0.4 32.8
03:05 1011 29.85 840 24.81 2.7 36.8 84 0.2 32.4
03:10 1011 29.85 840 24.81 2.8 37.1 83 0.3 32.5
03:15 1011 29.85 840 24.81 2.9 37.2 83 0.3 32.5
03:20 1011 29.85 840 24.81 2.9 37.2 84 0.5 32.9
03:25 1011 29.85 840 24.81 2.8 37 86 0.6 33.2
03:30 1011 29.85 840 24.81 2.6 36.7 86 0.5 32.9
03:35 1011 29.85 840 24.81 2.4 36.3 86 0.3 32.5
03:40 1011 29.85 840 24.81 2.5 36.4 87 0.4 32.8
03:45 1011 29.85 840 24.81 2.7 36.8 86 0.6 33.1
03:50 1011 29.85 840 24.81 2.6 36.7 76 -1.2 29.8
03:55 1011 29.85 840 24.81 3 37.4 76 -0.9 30.4
04:00 1011 29.85 840 24.81 3.1 37.5 76 -0.7 30.7
04:05 1011 29.85 840 24.81 3.1 37.5 76 -0.7 30.8
04:10 1011 29.85 840 24.81 3.1 37.5 76 -0.7 30.7
04:15 1011 29.85 840 24.81 3.1 37.5 77 -0.5 31
04:20 1011 29.85 840 24.81 3.1 37.5 77 -0.5 31
04:25 1011 29.85 840 24.81 2.9 37.3 80 -0.2 31.6
04:30 1011 29.85 840 24.81 2.5 36.6 81 -0.3 31.4
04:35 1011 29.85 840 24.81 2.2 36 83 -0.3 31.5
04:40 1011 29.85 840 24.81 2.2 35.9 83 -0.4 31.2
04:45 1011 29.85 840 24.81 2.2 35.9 83 -0.4 31.3
04:50 1011 29.85 840 24.81 2.2 36 82 -0.5 31.1
04:55 1011 29.85 840 24.81 2.1 35.9 83 -0.5 31.1
05:00 1011 29.85 840 24.81 2.1 35.8 82 -0.6 30.9
05:05 1011 29.85 840 24.81 2 35.7 82 -0.7 30.8
05:10 1011 29.85 840 24.81 2.1 35.7 81 -0.8 30.5
05:15 1011 29.85 840 24.81 2.1 35.8 81 -0.8 30.6
05:20 1011 29.85 840 24.81 2.2 35.9 81 -0.8 30.6
05:25 1011 29.85 840 24.81 2.2 35.9 80 -1 30.2
05:30 1011 29.85 840 24.81 2.1 35.8 79 -1.1 30
05:35 1011 29.85 840 24.81 2.2 35.9 77 -1.4 29.4
05:40 1011 29.85 840 24.81 2.1 35.8 76 -1.6 29.1
05:45 1011 29.85 841 24.83 2.1 35.8 75 -1.9 28.5
05:50 1011 29.85 841 24.83 2 35.6 74 -2.3 27.9
05:55 1011 29.85 841 24.83 1.9 35.5 73 -2.4 27.6
06:00 1011 29.85 841 24.83 2 35.5 74 -2.3 27.9
06:05 1011 29.85 841 24.83 2 35.5 73 -2.4 27.6
06:10 1012 29.88 841 24.83 2 35.5 73 -2.4 27.6
06:15 1012 29.88 841 24.83 1.9 35.5 74 -2.2 28
06:20 1012 29.88 841 24.83 1.9 35.3 75 -2.2 28.1
06:25 1012 29.88 841 24.83 1.9 35.3 75 -2.1 28.2
06:30 1012 29.88 841 24.83 1.9 35.5 74 -2.2 28
06:35 1012 29.88 841 24.83 2 35.6 73 -2.3 27.9
06:40 1012 29.88 841 24.83 2.1 35.7 73 -2.3 27.8
06:45 1012 29.88 841 24.83 2.2 35.9 72 -2.3 27.9
06:50 1012 29.88 841 24.83 2.3 36.1 71 -2.4 27.8
06:55 1012 29.88 841 24.83 2.4 36.3 71 -2.3 27.8
07:00 1012 29.88 841 24.83 2.4 36.3 72 -2.1 28.2
07:05 1012 29.88 841 24.83 2.4 36.4 73 -1.9 28.5
07:10 1012 29.88 841 24.83 2.5 36.4 73 -1.9 28.6
07:15 1012 29.88 841 24.83 2.5 36.4 73 -1.9 28.6
07:20 1012 29.88 841 24.83 2.4 36.4 74 -1.8 28.8
07:25 1012 29.88 842 24.86 2.5 36.4 73 -1.8 28.7
07:30 1012 29.88 842 24.86 2.4 36.3 75 -1.7 29
07:35 1012 29.88 842 24.86 2.5 36.4 73 -1.9 28.6
07:40 1012 29.88 842 24.86 2.5 36.6 72 -2 28.4
07:45 1012 29.88 842 24.86 2.6 36.7 71 -2 28.3
07:50 1013 29.91 842 24.86 2.6 36.7 72 -1.8 28.7
07:55 1013 29.91 842 24.86 2.6 36.7 72 -1.8 28.7
08:00 1013 29.91 842 24.86 2.6 36.7 73 -1.8 28.7
08:05 1013 29.91 842 24.86 2.7 36.8 73 -1.8 28.8
08:10 1013 29.91 842 24.86 2.8 37 72 -1.7 28.9
08:15 1013 29.91 842 24.86 2.8 37.1 73 -1.6 29.1
08:20 1013 29.91 842 24.86 2.8 37 73 -1.6 29.2
08:25 1013 29.91 842 24.86 2.7 36.9 73 -1.6 29.2
08:30 1013 29.91 842 24.86 2.9 37.3 73 -1.4 29.5
08:35 1013 29.91 842 24.86 3.1 37.6 70 -1.8 28.8
08:40 1013 29.91 842 24.86 3.2 37.7 68 -2.2 28.1
08:45 1013 29.91 842 24.86 3.2 37.7 66 -2.7 27.2
08:50 1013 29.91 842 24.86 3.2 37.8 65 -2.7 27.1
08:55 1013 29.91 842 24.86 3.3 38 65 -2.7 27.1
09:00 1013 29.91 842 24.86 3.4 38.2 64 -2.8 27
09:05 1013 29.91 842 24.86 3.5 38.3 64 -2.7 27.1
09:10 1013 29.91 842 24.86 3.5 38.3 63 -2.9 26.8
09:15 1013 29.91 842 24.86 3.4 38.2 63 -3 26.5
09:20 1013 29.91 842 24.86 3.4 38.2 62 -3.2 26.2
09:25 1013 29.91 842 24.86 3.4 38.1 62 -3.2 26.2
09:30 1013 29.91 842 24.86 3.4 38.1 62 -3.2 26.2
09:35 1013 29.91 842 24.86 3.5 38.2 61 -3.4 25.9
09:40 1013 29.91 842 24.86 3.5 38.3 60 -3.4 25.8
09:45 1013 29.91 842 24.86 3.6 38.5 59 -3.5 25.6
09:50 1013 29.91 842 24.86 3.7 38.7 59 -3.5 25.6
09:55 1013 29.91 842 24.86 3.8 38.8 59 -3.6 25.6
10:00 1013 29.91 842 24.86 3.9 39.1 57 -3.8 25.1
10:05 1013 29.91 842 24.86 4.2 39.6 58 -3.4 25.9
10:10 1013 29.91 842 24.86 4.5 40.1 56 -3.5 25.7
10:15 1013 29.91 843 24.89 4.6 40.2 56 -3.5 25.7
10:20 1013 29.91 843 24.89 4.6 40.3 55 -3.7 25.3
10:25 1013 29.91 843 24.89 4.6 40.3 54 -3.8 25.1
10:30 1013 29.91 843 24.89 4.8 40.6 53 -3.9 25
10:35 1013 29.91 843 24.89 4.8 40.6 53 -3.9 24.9
10:40 1014 29.94 843 24.89 5 40.9 53 -3.7 25.3
10:45 1014 29.94 843 24.89 5.1 41.1 55 -3.3 26
10:50 1014 29.94 843 24.89 5.1 41.2 54 -3.5 25.7
10:55 1014 29.94 843 24.89 4.9 40.9 54 -3.6 25.5
11:00 1014 29.94 843 24.89 4.9 40.8 57 -2.9 26.8
11:05 1014 29.94 843 24.89 4.6 40.2 59 -2.6 27.3
11:10 1014 29.94 843 24.89 4.8 40.7 57 -3 26.7
11:15 1014 29.94 843 24.89 4.6 40.2 56 -3.3 26
11:20 1014 29.94 843 24.89 4.6 40.2 55 -3.6 25.5
11:25 1014 29.94 843 24.89 5.2 41.3 55 -3.2 26.3
11:30 1014 29.94 843 24.89 5.7 42.3 52 -3.4 25.9
11:35 1014 29.94 843 24.89 5.9 42.6 49 -4 24.9
11:40 1014 29.94 843 24.89 6.3 43.4 51 -3.1 26.4
11:45 1014 29.94 843 24.89 6 42.9 51 -3.3 26.1
11:50 1014 29.94 843 24.89 5.7 42.2 52 -3.3 26
11:55 1014 29.94 843 24.89 5.9 42.6 50 -3.7 25.4
12:00 1014 29.94 843 24.89 6.9 44.4 45 -4.1 24.6
12:05 1014 29.94 843 24.89 7.2 45 45 -4 24.8
12:10 1014 29.94 843 24.89 6.8 44.2 46 -3.9 25
12:15 1014 29.94 843 24.89 7 44.6 48 -3.4 25.9
12:20 1014 29.94 843 24.89 7.1 44.8 46 -3.6 25.4
12:25 1014 29.94 843 24.89 6.7 44.1 48 -3.5 25.8
12:30 1014 29.94 843 24.89 6.4 43.6 49 -3.4 25.8
12:35 1014 29.94 843 24.89 6.1 43 49 -3.8 25.2
12:40 1014 29.94 843 24.89 6.3 43.3 49 -3.5 25.7
12:45 1014 29.94 843 24.89 6.4 43.5 49 -3.6 25.6
12:50 1014 29.94 843 24.89 6.1 43 53 -2.8 27
12:55 1014 29.94 843 24.89 5.2 41.4 57 -2.6 27.3
13:00 1014 29.94 843 24.89 5.7 42.2 56 -2.3 27.8
13:05 1014 29.94 843 24.89 5.7 42.3 63 -0.7 30.8
13:10 1014 29.94 843 24.89 5.3 41.5 66 -0.6 30.9
13:15 1014 29.94 843 24.89 4.6 40.3 68 -0.9 30.4
13:20 1014 29.94 844 24.92 4.4 39.9 73 -0 31.9
13:25 1015 29.97 844 24.92 4.2 39.5 78 0.7 33.2
13:30 1015 29.97 844 24.92 3.1 37.5 86 0.9 33.6
13:35 1015 29.97 844 24.92 2.4 36.3 89 0.8 33.4
13:40 1015 29.97 844 24.92 2.3 36.1 91 1 33.7
13:45 1015 29.97 844 24.92 2.2 35.9 92 1 33.9
13:50 1015 29.97 844 24.92 2 35.6 94 1.1 34
13:55 1015 29.97 844 24.92 2 35.6 94 1.2 34.1
14:00 1015 29.97 844 24.92 1.8 35.3 95 1.1 34
14:05 1015 29.97 844 24.92 1.8 35.2 96 1.2 34.2
14:10 1015 29.97 844 24.92 1.7 35.1 96 1.2 34.1
14:15 1015 29.97 844 24.92 1.5 34.6 97 1 33.8
14:20 1015 29.97 845 24.95 1.3 34.3 98 0.9 33.7
14:25 1015 29.97 845 24.95 1.2 34.1 98 0.9 33.6
14:30 1015 29.97 845 24.95 1.1 34 98 0.9 33.6
14:35 1015 29.97 845 24.95 1.4 34.5 99 1.2 34.2
14:40 1016 30 845 24.95 1.7 35.1 99 1.5 34.8
14:45 1016 30 845 24.95 1.9 35.4 99 1.7 35
14:50 1016 30 845 24.95 1.9 35.4 99 1.7 35
14:55 1016 30 845 24.95 1.8 35.3 99 1.6 35
15:00 1016 30 845 24.95 1.8 35.3 99 1.6 34.9
15:05 1016 30 845 24.95 1.9 35.4 99 1.7 35.1
15:10 1016 30 845 24.95 2.1 35.8 99 1.9 35.5
15:15 1016 30 845 24.95 2.3 36.2 99 2.1 35.8
15:20 1016 30 845 24.95 2.5 36.6 98 2.3 36.1
15:25 1016 30 845 24.95 2.6 36.7 98 2.3 36.2
15:30 1016 30 845 24.95 2.6 36.6 98 2.2 36
15:35 1016 30 845 24.95 2.5 36.6 98 2.2 36
15:40 1016 30 845 24.95 2.3 36.1 97 1.9 35.4
15:45 1016 30 845 24.95 2.1 35.8 98 1.8 35.2
15:50 1016 30 845 24.95 2 35.7 98 1.7 35.1
15:55 1016 30 845 24.95 1.8 35.3 98 1.6 34.8
16:00 1016 30 845 24.95 1.9 35.5 98 1.7 35
16:05 1016 30 845 24.95 2 35.5 98 1.7 35.1
16:10 1016 30 845 24.95 2.1 35.7 98 1.8 35.3
16:15 1016 30 846 24.98 2.3 36.1 99 2.1 35.7
16:20 1016 30 846 24.98 2.6 36.6 98 2.3 36.2
16:25 1016 30 846 24.98 2.7 36.8 98 2.4 36.3
16:30 1016 30 846 24.98 2.9 37.1 98 2.6 36.6
16:35 1016 30 846 24.98 3 37.5 97 2.7 36.8
16:40 1017 30.03 846 24.98 3.2 37.8 98 2.8 37.1
16:45 1017 30.03 846 24.98 3.1 37.6 97 2.6 36.7
16:50 1017 30.03 846 24.98 2.6 36.6 97 2.1 35.8
16:55 1017 30.03 846 24.98 2.3 36.1 98 2 35.7
17:00 1017 30.03 846 24.98 2.7 36.8 98 2.3 36.2
17:05 1017 30.03 846 24.98 3 37.3 97 2.5 36.6
17:10 1017 30.03 846 24.98 3 37.3 96 2.4 36.3
17:15 1017 30.03 846 24.98 2.9 37.3 96 2.4 36.3
17:20 1017 30.03 846 24.98 3 37.4 95 2.3 36.1
17:25 1017 30.03 846 24.98 2.9 37.1 96 2.2 36
17:30 1017 30.03 846 24.98 2.7 36.9 96 2.1 35.8
17:35 1017 30.03 846 24.98 3 37.3 95 2.2 36
17:40 1017 30.03 846 24.98 3 37.3 94 2.1 35.8
17:45 1017 30.03 846 24.98 2.7 36.9 94 1.9 35.4
17:50 1017 30.03 846 24.98 2.7 36.8 94 1.8 35.3
17:55 1017 30.03 846 24.98 2.9 37.2 94 2 35.5
18:00 1017 30.03 846 24.98 2.9 37.3 93 1.9 35.5
18:05 1017 30.03 846 24.98 2.9 37.3 93 1.9 35.4
18:10 1017 30.03 846 24.98 3 37.5 94 2.1 35.8
18:15 1017 30.03 846 24.98 3.3 38 92 2.2 36
18:20 1017 30.03 846 24.98 3.2 37.8 93 2.1 35.9
18:25 1017 30.03 846 24.98 3.1 37.7 93 2.1 35.8
18:30 1017 30.03 846 24.98 3.3 37.9 93 2.3 36.1
18:35 1017 30.03 846 24.98 2.9 37.3 93 1.9 35.5
18:40 1017 30.03 846 24.98 2.6 36.8 94 1.8 35.3
18:45 1017 30.03 846 24.98 2.7 36.9 94 1.9 35.4
18:50 1017 30.03 847 25.01 2.8 37.1 95 2 35.7
18:55 1017 30.03 847 25.01 2.8 37 95 2 35.7
19:00 1017 30.03 847 25.01 2.8 37.1 95 2.1 35.8
19:05 1017 30.03 847 25.01 2.9 37.2 95 2.2 35.9
19:10 1017 30.03 847 25.01 2.9 37.2 95 2.2 35.9
19:15 1018 30.06 847 25.01 2.7 36.9 95 2 35.7
19:20 1018 30.06 847 25.01 2.6 36.7 96 2 35.6
19:25 1018 30.06 847 25.01 2.6 36.7 96 2 35.6
19:30 1018 30.06 847 25.01 2.7 36.8 97 2.2 35.9
19:35 1018 30.06 847 25.01 2.9 37.1 96 2.3 36.1
19:40 1018 30.06 847 25.01 3 37.4 96 2.4 36.3
19:45 1018 30.06 847 25.01 3.1 37.6 96 2.5 36.5
19:50 1018 30.06 847 25.01 3.2 37.8 95 2.5 36.5
19:55 1018 30.06 847 25.01 3.3 38 95 2.5 36.6
20:00 1018 30.06 847 25.01 3.4 38.1 94 2.6 36.6
20:05 1018 30.06 847 25.01 3.4 38.2 94 2.5 36.5
20:10 1018 30.06 847 25.01 3.4 38.1 94 2.5 36.4
20:15 1018 30.06 847 25.01 3.5 38.3 93 2.5 36.5
20:20 1018 30.06 847 25.01 3.5 38.2 93 2.5 36.5
20:25 1018 30.06 847 25.01 3.5 38.3 94 2.5 36.6
20:30 1018 30.06 847 25.01 3.5 38.4 94 2.6 36.7
20:35 1018 30.06 847 25.01 3.6 38.4 94 2.6 36.7
20:40 1018 30.06 847 25.01 3.6 38.4 94 2.6 36.7
20:45 1018 30.06 847 25.01 3.5 38.3 94 2.6 36.6
20:50 1018 30.06 848 25.04 3.4 38.2 93 2.4 36.4
20:55 1018 30.06 848 25.04 3.5 38.3 93 2.5 36.5
21:00 1018 30.06 848 25.04 3.7 38.7 92 2.6 36.7
21:05 1019 30.09 848 25.04 3.7 38.7 92 2.6 36.6
21:10 1019 30.09 848 25.04 3.8 38.8 91 2.5 36.4
21:15 1019 30.09 848 25.04 3.6 38.5 91 2.3 36.1
21:20 1019 30.09 848 25.04 3.5 38.2 92 2.3 36.1
21:25 1019 30.09 848 25.04 3.6 38.4 92 2.3 36.2
21:30 1019 30.09 848 25.04 3.4 38.2 92 2.3 36.1
21:35 1019 30.09 848 25.04 3.5 38.3 92 2.3 36.2
21:40 1019 30.09 848 25.04 3.5 38.3 92 2.3 36.2
21:45 1019 30.09 848 25.04 3.4 38.1 92 2.2 36
21:50 1019 30.09 848 25.04 3.2 37.8 92 2.1 35.8
21:55 1019 30.09 848 25.04 3.2 37.8 92 2.1 35.8
22:00 1019 30.09 848 25.04 3.2 37.8 92 2.1 35.8
22:05 1019 30.09 848 25.04 3.2 37.7 92 2 35.7
22:10 1019 30.09 848 25.04 3 37.5 93 2 35.6
22:15 1019 30.09 848 25.04 3.1 37.5 93 2 35.6
22:20 1019 30.09 848 25.04 3.1 37.6 92 2 35.6
22:25 1019 30.09 848 25.04 3 37.5 93 2 35.6
22:30 1019 30.09 848 25.04 2.9 37.3 93 1.9 35.5
22:35 1019 30.09 848 25.04 2.8 37.1 93 1.9 35.3
22:40 1019 30.09 849 25.07 2.8 37 93 1.8 35.2
22:45 1019 30.09 849 25.07 2.8 37 93 1.8 35.3
22:50 1019 30.09 849 25.07 2.8 37.1 93 1.8 35.3
22:55 1019 30.09 849 25.07 3 37.4 93 2 35.6
23:00 1020 30.12 849 25.07 3.1 37.6 93 2.1 35.7
23:05 1020 30.12 849 25.07 3.1 37.6 93 2.1 35.8
23:10 1020 30.12 849 25.07 3.2 37.7 93 2.2 35.9
23:15 1020 30.12 849 25.07 3.2 37.8 93 2.2 36
23:20 1020 30.12 849 25.07 3.2 37.8 93 2.2 35.9
23:25 1020 30.12 849 25.07 3.2 37.7 93 2.2 35.9
23:30 1020 30.12 849 25.07 3.1 37.6 93 2.1 35.8
23:35 1020 30.12 849 25.07 3.1 37.5 93 2.1 35.7
23:40 1020 30.12 849 25.07 3 37.5 93 2 35.6
23:45 1020 30.12 849 25.07 2.9 37.3 93 1.9 35.5
23:50 1020 30.12 849 25.07 2.9 37.3 93 1.9 35.4
23:55 1020 30.12 849 25.07 2.9 37.2 93 1.9 35.4
24:00 1020 30.12 849 25.07 2.8 37.1 94 1.9 35.4